Time;durP1;ratioP1;P1;durP2;ratioP2;P2;SDS_P1;SDS_P2;PMS_P1;PMS_P2;Temp;Humidity;BMP_temperature;BMP_pressure;BME280_temperature;BME280_humidity;BME280_pressure;Samples;Min_cycle;Max_cycle;Signal;HPM_P1;HPM_P2
2022/04/09 00:00:14;;;;;;;5.85;0.98;;;;;;;;;;4911582;29;20071;-63
2022/04/09 00:03:00;;;;;;;4.65;0.90;;;;;;;;;;4911812;29;20048;-66
2022/04/09 00:05:26;;;;;;;3.63;0.90;;;;;;;;;;4913170;29;20064;-67
2022/04/09 00:07:53;;;;;;;2.35;0.95;;;;;;;;;;4912055;29;20176;-62
2022/04/09 00:10:19;;;;;;;4.40;1.13;;;;;;;;;;4909507;29;20447;-64
2022/04/09 00:12:46;;;;;;;3.45;0.80;;;;;;;;;;4914510;29;20413;-65
2022/04/09 00:15:14;;;;;;;3.00;0.80;;;;;;;;;;4915516;29;20048;-62
2022/04/09 00:17:41;;;;;;;5.25;0.90;;;;;;;;;;4913891;29;20371;-62
2022/04/09 00:20:09;;;;;;;4.22;0.90;;;;;;;;;;4912867;29;20056;-64
2022/04/09 00:22:38;;;;;;;2.72;0.93;;;;;;;;;;4913941;29;20079;-61
2022/04/09 00:25:06;;;;;;;4.78;1.00;;;;;;;;;;4912529;29;20044;-67
2022/04/09 00:27:32;;;;;;;5.25;1.00;;;;;;;;;;4911025;29;20529;-62
2022/04/09 00:29:58;;;;;;;2.20;0.85;;;;;;;;;;4911269;29;20107;-63
2022/04/09 00:32:24;;;;;;;5.03;1.23;;;;;;;;;;4910309;29;20154;-62
2022/04/09 00:34:50;;;;;;;5.90;1.10;;;;;;;;;;4912845;29;20062;-62
2022/04/09 00:37:17;;;;;;;1.75;0.88;;;;;;;;;;4912462;29;20048;-63
2022/04/09 00:39:42;;;;;;;1.98;0.90;;;;;;;;;;4911541;29;20048;-62
2022/04/09 00:42:16;;;;;;;2.60;0.90;;;;;;;;;;4906317;29;20108;-63
2022/04/09 00:44:42;;;;;;;2.20;0.90;;;;;;;;;;4901198;29;20399;-62
2022/04/09 00:47:09;;;;;;;2.20;1.10;;;;;;;;;;4910389;29;20470;-62
2022/04/09 00:49:37;;;;;;;1.30;0.73;;;;;;;;;;4911655;29;20040;-61
2022/04/09 00:52:04;;;;;;;1.55;0.77;;;;;;;;;;4910871;29;20048;-63
2022/04/09 00:54:31;;;;;;;3.95;0.90;;;;;;;;;;4912298;29;20620;-61
2022/04/09 00:57:05;;;;;;;3.65;0.90;;;;;;;;;;4897355;29;20054;-62
2022/04/09 00:59:33;;;;;;;4.70;0.70;;;;;;;;;;4914920;29;20051;-61
2022/04/09 01:02:00;;;;;;;3.30;1.10;;;;;;;;;;4912858;29;20044;-62
2022/04/09 01:04:26;;;;;;;4.18;1.20;;;;;;;;;;4914071;29;20440;-62
2022/04/09 01:06:53;;;;;;;3.58;0.95;;;;;;;;;;4913954;29;20048;-62
2022/04/09 01:09:19;;;;;;;3.53;1.00;;;;;;;;;;4909857;29;20354;-61
2022/04/09 01:11:45;;;;;;;4.15;0.85;;;;;;;;;;4915376;29;20134;-63
2022/04/09 01:14:12;;;;;;;3.08;0.90;;;;;;;;;;4908572;29;20130;-62
2022/04/09 01:16:38;;;;;;;4.68;0.85;;;;;;;;;;4913799;29;20071;-62
2022/04/09 01:19:04;;;;;;;2.17;0.80;;;;;;;;;;4911057;29;20067;-62
2022/04/09 01:21:30;;;;;;;2.65;0.88;;;;;;;;;;4915843;29;20449;-61
2022/04/09 01:23:57;;;;;;;3.78;0.70;;;;;;;;;;4917686;29;20063;-62
2022/04/09 01:26:23;;;;;;;7.15;1.10;;;;;;;;;;4919035;29;20063;-63
2022/04/09 01:28:49;;;;;;;5.53;1.23;;;;;;;;;;4916748;29;20107;-61
2022/04/09 01:31:16;;;;;;;2.65;0.88;;;;;;;;;;4908952;29;20148;-63
2022/04/09 01:33:43;;;;;;;4.13;1.00;;;;;;;;;;4913210;29;20048;-61
2022/04/09 01:36:09;;;;;;;2.55;1.10;;;;;;;;;;4912991;29;20056;-61
2022/04/09 01:38:36;;;;;;;3.10;0.90;;;;;;;;;;4912471;29;20075;-63
2022/04/09 01:41:03;;;;;;;2.65;1.13;;;;;;;;;;4912624;29;20490;-62
2022/04/09 01:43:29;;;;;;;2.05;0.90;;;;;;;;;;4906028;29;20060;-61
2022/04/09 01:45:55;;;;;;;4.57;0.98;;;;;;;;;;4911707;29;20087;-61
2022/04/09 01:48:21;;;;;;;3.35;0.90;;;;;;;;;;4912273;29;20075;-60
2022/04/09 01:50:47;;;;;;;7.57;1.13;;;;;;;;;;4910763;29;20142;-61
2022/04/09 01:53:14;;;;;;;6.20;1.60;;;;;;;;;;4911816;29;20332;-63
2022/04/09 01:55:40;;;;;;;5.15;1.00;;;;;;;;;;4914116;29;20048;-61
2022/04/09 01:58:06;;;;;;;3.83;1.00;;;;;;;;;;4912683;29;20051;-61
2022/04/09 02:00:34;;;;;;;2.15;0.90;;;;;;;;;;4914311;29;20044;-63
2022/04/09 02:02:59;;;;;;;3.08;1.10;;;;;;;;;;4914607;29;20083;-62
2022/04/09 02:05:25;;;;;;;3.38;1.42;;;;;;;;;;4913180;29;20080;-62
2022/04/09 02:07:51;;;;;;;2.58;0.90;;;;;;;;;;4913373;29;20552;-61
2022/04/09 02:10:18;;;;;;;3.17;1.10;;;;;;;;;;4896421;29;20127;-63
2022/04/09 02:12:45;;;;;;;3.53;0.93;;;;;;;;;;4912278;29;20063;-62
2022/04/09 02:15:14;;;;;;;5.65;1.10;;;;;;;;;;4917498;29;20052;-62
2022/04/09 02:17:41;;;;;;;3.53;1.10;;;;;;;;;;4914848;29;20063;-61
2022/04/09 02:20:09;;;;;;;6.15;1.55;;;;;;;;;;4913966;29;20060;-62
2022/04/09 02:22:40;;;;;;;3.90;1.10;;;;;;;;;;4922404;29;20079;-61
2022/04/09 02:25:09;;;;;;;3.42;1.10;;;;;;;;;;4914144;29;20044;-62
2022/04/09 02:27:34;;;;;;;4.70;0.90;;;;;;;;;;4911214;29;20352;-65
2022/04/09 02:30:03;;;;;;;3.70;1.10;;;;;;;;;;4912233;29;20044;-62
2022/04/09 02:32:29;;;;;;;4.35;1.00;;;;;;;;;;4916233;29;20048;-66
2022/04/09 02:34:56;;;;;;;5.00;1.20;;;;;;;;;;4911840;29;20187;-64
2022/04/09 02:37:22;;;;;;;2.38;0.88;;;;;;;;;;4915705;29;20450;-62
2022/04/09 02:39:48;;;;;;;4.93;1.10;;;;;;;;;;4911505;29;20068;-62
2022/04/09 02:42:14;;;;;;;1.73;0.80;;;;;;;;;;4914892;29;20349;-61
2022/04/09 02:44:43;;;;;;;3.95;0.77;;;;;;;;;;4912398;29;20064;-61
2022/04/09 02:47:09;;;;;;;1.50;0.90;;;;;;;;;;4915070;29;20052;-62
2022/04/09 02:49:35;;;;;;;2.67;0.90;;;;;;;;;;4901827;29;20044;-62
2022/04/09 02:52:01;;;;;;;2.85;1.05;;;;;;;;;;4916844;29;20110;-61
2022/04/09 02:54:27;;;;;;;6.20;0.70;;;;;;;;;;4914559;29;20060;-61
2022/04/09 02:56:53;;;;;;;3.38;1.10;;;;;;;;;;4911879;29;20106;-64
2022/04/09 02:59:19;;;;;;;7.60;1.15;;;;;;;;;;4913911;29;20051;-66
2022/04/09 03:01:48;;;;;;;3.65;1.10;;;;;;;;;;4913464;29;20044;-61
2022/04/09 03:04:14;;;;;;;2.78;0.77;;;;;;;;;;4915173;29;20080;-62
2022/04/09 03:06:40;;;;;;;7.07;1.33;;;;;;;;;;4913173;29;20052;-62
2022/04/09 03:09:06;;;;;;;4.18;1.13;;;;;;;;;;4914504;29;20066;-62
2022/04/09 03:11:33;;;;;;;1.27;0.75;;;;;;;;;;4914189;29;20055;-61
2022/04/09 03:13:59;;;;;;;4.40;1.00;;;;;;;;;;4894159;29;20103;-61
2022/04/09 03:16:24;;;;;;;7.40;1.40;;;;;;;;;;4913446;29;20044;-68
2022/04/09 03:18:50;;;;;;;3.05;1.00;;;;;;;;;;4912973;29;20293;-62
2022/04/09 03:21:16;;;;;;;7.05;1.10;;;;;;;;;;4912896;29;20044;-62
2022/04/09 03:23:42;;;;;;;4.50;1.10;;;;;;;;;;4912313;29;20050;-61
2022/04/09 03:26:08;;;;;;;4.47;1.33;;;;;;;;;;4912279;29;20397;-61
2022/04/09 03:28:34;;;;;;;6.32;1.20;;;;;;;;;;4899723;29;20054;-61
2022/04/09 03:31:00;;;;;;;3.83;1.20;;;;;;;;;;4910317;29;20055;-63
2022/04/09 03:33:26;;;;;;;5.45;1.10;;;;;;;;;;4906959;29;20067;-63
2022/04/09 03:35:52;;;;;;;4.75;1.33;;;;;;;;;;4908006;29;20510;-60
2022/04/09 03:38:18;;;;;;;3.42;1.23;;;;;;;;;;4905599;29;20152;-65
2022/04/09 03:40:45;;;;;;;1.70;1.10;;;;;;;;;;4903612;29;20044;-62
2022/04/09 03:43:11;;;;;;;4.40;1.23;;;;;;;;;;4912460;29;20261;-61
2022/04/09 03:45:37;;;;;;;4.28;1.38;;;;;;;;;;4911436;29;20403;-67
2022/04/09 03:48:03;;;;;;;5.20;1.50;;;;;;;;;;4912105;29;20045;-62
2022/04/09 03:50:29;;;;;;;4.82;1.00;;;;;;;;;;4911848;29;20048;-62
2022/04/09 03:52:55;;;;;;;6.68;1.27;;;;;;;;;;4911996;29;20571;-61
2022/04/09 03:55:21;;;;;;;4.15;1.10;;;;;;;;;;4909461;29;20107;-62
2022/04/09 03:57:47;;;;;;;5.03;1.20;;;;;;;;;;4909224;29;20079;-65
2022/04/09 04:00:16;;;;;;;4.63;1.48;;;;;;;;;;4893530;29;20052;-62
2022/04/09 04:02:42;;;;;;;2.58;0.90;;;;;;;;;;4913933;29;20471;-62
2022/04/09 04:05:09;;;;;;;1.77;0.98;;;;;;;;;;4905436;29;20048;-61
2022/04/09 04:07:34;;;;;;;4.43;1.20;;;;;;;;;;4906273;29;20056;-62
2022/04/09 04:10:02;;;;;;;4.80;1.20;;;;;;;;;;4913696;29;20054;-61
2022/04/09 04:12:28;;;;;;;2.75;0.88;;;;;;;;;;4909416;29;20478;-60
2022/04/09 04:14:55;;;;;;;3.80;1.20;;;;;;;;;;4907921;29;20060;-63
2022/04/09 04:17:21;;;;;;;4.85;1.20;;;;;;;;;;4915962;29;20197;-63
2022/04/09 04:19:47;;;;;;;4.10;1.20;;;;;;;;;;4894241;29;20540;-64
2022/04/09 04:22:13;;;;;;;2.88;1.00;;;;;;;;;;4912890;29;20040;-62
2022/04/09 04:24:39;;;;;;;2.45;1.23;;;;;;;;;;4912617;29;20122;-62
2022/04/09 04:27:05;;;;;;;5.47;1.00;;;;;;;;;;4911604;29;20070;-64
2022/04/09 04:29:32;;;;;;;3.88;1.00;;;;;;;;;;4908923;29;20079;-62
2022/04/09 04:31:59;;;;;;;2.83;1.38;;;;;;;;;;4914066;29;20498;-61
2022/04/09 04:34:25;;;;;;;2.08;1.00;;;;;;;;;;4915680;29;20063;-62
2022/04/09 04:36:51;;;;;;;3.55;0.98;;;;;;;;;;4917396;29;20048;-64
2022/04/09 04:39:16;;;;;;;5.55;1.27;;;;;;;;;;4900009;29;20055;-61
2022/04/09 04:41:43;;;;;;;4.65;1.20;;;;;;;;;;4914985;29;20454;-62
2022/04/09 04:44:10;;;;;;;2.00;1.02;;;;;;;;;;4914099;29;20051;-62
2022/04/09 04:46:36;;;;;;;2.72;0.82;;;;;;;;;;4915077;29;20048;-62
2022/04/09 04:49:03;;;;;;;6.63;1.48;;;;;;;;;;4915566;29;20404;-63
2022/04/09 04:51:29;;;;;;;3.67;1.10;;;;;;;;;;4896901;29;20056;-63
2022/04/09 04:53:55;;;;;;;4.60;1.20;;;;;;;;;;4915134;29;20636;-62
2022/04/09 04:56:23;;;;;;;4.53;1.33;;;;;;;;;;4914330;29;20056;-65
2022/04/09 04:58:50;;;;;;;7.25;1.30;;;;;;;;;;4912323;29;20110;-63
2022/04/09 05:01:16;;;;;;;6.45;1.40;;;;;;;;;;4907512;29;20424;-61
2022/04/09 05:03:42;;;;;;;4.65;1.50;;;;;;;;;;4912992;29;20059;-63
2022/04/09 05:06:08;;;;;;;5.88;2.20;;;;;;;;;;4916219;29;20442;-61
2022/04/09 05:08:33;;;;;;;4.10;1.30;;;;;;;;;;4913770;29;20052;-61
2022/04/09 05:10:59;;;;;;;3.72;1.23;;;;;;;;;;4914173;29;20051;-63
2022/04/09 05:13:25;;;;;;;3.58;1.58;;;;;;;;;;4912408;29;20048;-61
2022/04/09 05:15:51;;;;;;;3.83;1.70;;;;;;;;;;4917660;29;20055;-65
2022/04/09 05:18:17;;;;;;;3.80;1.50;;;;;;;;;;4901835;29;20048;-63
2022/04/09 05:20:43;;;;;;;3.97;1.27;;;;;;;;;;4898798;29;20040;-62
2022/04/09 05:23:09;;;;;;;6.43;2.00;;;;;;;;;;4912524;29;20481;-63
2022/04/09 05:25:35;;;;;;;6.05;1.60;;;;;;;;;;4913718;29;20143;-62
2022/04/09 05:28:05;;;;;;;4.32;1.48;;;;;;;;;;4912407;29;20120;-64
2022/04/09 05:30:32;;;;;;;4.85;1.35;;;;;;;;;;4914945;29;20044;-61
2022/04/09 05:32:58;;;;;;;4.35;1.23;;;;;;;;;;4915595;29;20108;-62
2022/04/09 05:35:24;;;;;;;3.10;1.60;;;;;;;;;;4908627;29;20241;-62
2022/04/09 05:37:51;;;;;;;5.97;1.50;;;;;;;;;;4913752;29;20059;-62
2022/04/09 05:40:18;;;;;;;5.85;1.63;;;;;;;;;;4918022;29;20056;-61
2022/04/09 05:42:44;;;;;;;3.65;1.50;;;;;;;;;;4913233;29;20040;-62
2022/04/09 05:45:11;;;;;;;4.22;1.38;;;;;;;;;;4912097;29;20414;-62
2022/04/09 05:47:45;;;;;;;3.30;1.45;;;;;;;;;;4913426;29;20083;-63
2022/04/09 05:50:11;;;;;;;7.18;1.70;;;;;;;;;;4910872;29;20044;-63
2022/04/09 05:52:37;;;;;;;4.95;1.42;;;;;;;;;;4912336;29;20576;-66
2022/04/09 05:55:05;;;;;;;4.03;1.30;;;;;;;;;;4914037;29;20102;-63
2022/04/09 05:57:31;;;;;;;3.50;1.45;;;;;;;;;;4919205;29;20052;-62
2022/04/09 05:59:58;;;;;;;6.07;1.40;;;;;;;;;;4916682;29;20139;-62
2022/04/09 06:02:24;;;;;;;5.55;1.38;;;;;;;;;;4910376;29;20135;-62
2022/04/09 06:04:50;;;;;;;5.80;1.55;;;;;;;;;;4904843;29;20052;-64
2022/04/09 06:07:17;;;;;;;4.38;1.50;;;;;;;;;;4910863;29;20056;-61
2022/04/09 06:09:44;;;;;;;3.78;1.40;;;;;;;;;;4907759;29;20048;-66
2022/04/09 06:12:11;;;;;;;4.88;1.55;;;;;;;;;;4906641;29;20132;-62
2022/04/09 06:14:36;;;;;;;7.63;1.75;;;;;;;;;;4910578;29;20048;-62
2022/04/09 06:17:03;;;;;;;4.28;1.45;;;;;;;;;;4914556;29;20100;-62
2022/04/09 06:19:29;;;;;;;4.20;1.35;;;;;;;;;;4912902;29;20055;-62
2022/04/09 06:21:56;;;;;;;3.38;1.08;;;;;;;;;;4909766;29;20517;-62
2022/04/09 06:24:22;;;;;;;5.30;1.70;;;;;;;;;;4892960;29;20410;-63
2022/04/09 06:26:48;;;;;;;4.07;1.45;;;;;;;;;;4915596;29;20044;-65
2022/04/09 06:29:14;;;;;;;7.47;1.42;;;;;;;;;;4915995;29;20434;-64
2022/04/09 06:31:40;;;;;;;7.13;1.30;;;;;;;;;;4913229;29;20062;-62
2022/04/09 06:34:06;;;;;;;4.25;1.38;;;;;;;;;;4911193;29;20044;-63
2022/04/09 06:36:32;;;;;;;5.00;1.80;;;;;;;;;;4915958;29;20426;-62
2022/04/09 06:38:58;;;;;;;4.35;1.80;;;;;;;;;;4911721;29;20151;-63
2022/04/09 06:41:25;;;;;;;4.47;1.55;;;;;;;;;;4912929;29;20151;-63
2022/04/09 06:43:52;;;;;;;8.05;1.95;;;;;;;;;;4911926;29;20052;-61
2022/04/09 06:46:18;;;;;;;5.32;1.75;;;;;;;;;;4913379;29;20714;-64
2022/04/09 06:48:45;;;;;;;4.47;1.58;;;;;;;;;;4912934;29;20067;-64
2022/04/09 06:51:10;;;;;;;4.30;1.58;;;;;;;;;;4909737;29;20047;-64
2022/04/09 06:53:38;;;;;;;4.65;1.45;;;;;;;;;;4913582;29;20541;-65
2022/04/09 06:56:04;;;;;;;2.95;1.40;;;;;;;;;;4912716;29;20044;-61
2022/04/09 06:58:30;;;;;;;4.28;1.40;;;;;;;;;;4908297;29;20063;-63
2022/04/09 07:00:56;;;;;;;5.10;1.35;;;;;;;;;;4904069;29;20048;-63
2022/04/09 07:03:22;;;;;;;4.40;1.45;;;;;;;;;;4901704;29;20056;-62
2022/04/09 07:05:48;;;;;;;5.50;1.83;;;;;;;;;;4904241;29;21007;-62
2022/04/09 07:08:14;;;;;;;5.90;1.60;;;;;;;;;;4907535;29;20052;-63
2022/04/09 07:10:40;;;;;;;5.38;1.63;;;;;;;;;;4906056;29;20496;-62
2022/04/09 07:13:06;;;;;;;8.35;1.60;;;;;;;;;;4904323;29;20044;-64
2022/04/09 07:15:33;;;;;;;4.10;1.40;;;;;;;;;;4905254;29;20049;-65
2022/04/09 07:17:58;;;;;;;4.47;1.40;;;;;;;;;;4902152;29;20591;-62
2022/04/09 07:20:24;;;;;;;2.72;1.20;;;;;;;;;;4904444;29;20044;-62
2022/04/09 07:22:50;;;;;;;2.42;1.40;;;;;;;;;;4905771;29;20473;-62
2022/04/09 07:25:19;;;;;;;2.55;1.42;;;;;;;;;;4905156;29;20131;-64
2022/04/09 07:27:49;;;;;;;3.42;1.20;;;;;;;;;;4908830;29;20055;-64
2022/04/09 07:30:18;;;;;;;5.03;1.80;;;;;;;;;;4906334;29;20051;-67
2022/04/09 07:32:44;;;;;;;10.63;1.98;;;;;;;;;;4905709;29;20055;-63
2022/04/09 07:35:12;;;;;;;4.15;1.55;;;;;;;;;;4902965;29;20641;-64
2022/04/09 07:37:40;;;;;;;6.43;1.75;;;;;;;;;;4908554;29;20107;-67
2022/04/09 07:40:08;;;;;;;4.25;1.33;;;;;;;;;;4902669;29;20079;-62
2022/04/09 07:42:34;;;;;;;6.65;1.60;;;;;;;;;;4896788;29;20557;-64
2022/04/09 07:45:00;;;;;;;8.02;2.00;;;;;;;;;;4901217;29;20096;-64
2022/04/09 07:47:26;;;;;;;6.30;1.60;;;;;;;;;;4903611;29;20079;-63
2022/04/09 07:49:51;;;;;;;5.28;1.80;;;;;;;;;;4907220;29;20085;-62
2022/04/09 07:52:17;;;;;;;3.72;1.52;;;;;;;;;;4907111;29;20518;-63
2022/04/09 07:54:43;;;;;;;6.38;2.55;;;;;;;;;;4903492;29;20058;-64
2022/04/09 07:57:09;;;;;;;5.90;2.05;;;;;;;;;;4900976;29;20048;-62
2022/04/09 07:59:35;;;;;;;9.95;1.95;;;;;;;;;;4901158;29;20465;-64
2022/04/09 08:02:01;;;;;;;3.97;1.65;;;;;;;;;;4906891;29;20048;-64
2022/04/09 08:04:27;;;;;;;8.90;1.60;;;;;;;;;;4903579;29;20666;-62
2022/04/09 08:06:53;;;;;;;7.15;2.00;;;;;;;;;;4908527;29;20044;-64
2022/04/09 08:09:18;;;;;;;4.28;1.30;;;;;;;;;;4907212;29;20474;-64
2022/04/09 08:11:45;;;;;;;9.13;1.60;;;;;;;;;;4903818;29;20048;-62
2022/04/09 08:14:11;;;;;;;4.13;1.77;;;;;;;;;;4906530;29;20048;-65
2022/04/09 08:16:38;;;;;;;6.13;1.52;;;;;;;;;;4908355;29;20410;-64
2022/04/09 08:19:04;;;;;;;6.30;1.90;;;;;;;;;;4904873;29;20135;-63
2022/04/09 08:21:30;;;;;;;5.00;1.80;;;;;;;;;;4907589;29;20134;-63
2022/04/09 08:23:55;;;;;;;4.28;1.55;;;;;;;;;;4903356;29;20123;-67
2022/04/09 08:26:21;;;;;;;3.22;1.50;;;;;;;;;;4886663;29;20083;-63
2022/04/09 08:28:47;;;;;;;5.25;1.83;;;;;;;;;;4904018;29;20058;-64
2022/04/09 08:31:13;;;;;;;4.70;1.63;;;;;;;;;;4906092;29;20174;-63
2022/04/09 08:33:42;;;;;;;4.85;1.27;;;;;;;;;;4903525;29;20442;-62
2022/04/09 08:36:08;;;;;;;7.07;1.73;;;;;;;;;;4903954;29;20147;-64
2022/04/09 08:38:34;;;;;;;4.40;1.80;;;;;;;;;;4904103;29;20379;-64
2022/04/09 08:41:04;;;;;;;5.22;1.83;;;;;;;;;;4907126;29;20048;-63
2022/04/09 08:43:31;;;;;;;4.93;1.60;;;;;;;;;;4904443;29;20111;-63
2022/04/09 08:46:02;;;;;;;5.28;1.73;;;;;;;;;;4902533;29;20640;-63
2022/04/09 08:48:28;;;;;;;5.47;1.70;;;;;;;;;;4906883;29;20056;-65
2022/04/09 08:50:55;;;;;;;10.27;1.75;;;;;;;;;;4904146;29;20056;-65
2022/04/09 08:53:21;;;;;;;3.70;1.60;;;;;;;;;;4885430;29;20167;-64
2022/04/09 08:55:48;;;;;;;6.85;1.83;;;;;;;;;;4901346;29;20625;-65
2022/04/09 08:58:17;;;;;;;3.35;1.60;;;;;;;;;;4904049;29;20048;-64
2022/04/09 09:00:46;;;;;;;4.75;1.85;;;;;;;;;;4902559;29;20388;-61
2022/04/09 09:03:14;;;;;;;7.25;2.00;;;;;;;;;;4903742;29;20083;-63
2022/04/09 09:05:52;;;;;;;5.20;1.52;;;;;;;;;;4907613;29;20052;-65
2022/04/09 09:08:43;;;;;;;3.90;1.83;;;;;;;;;;4906873;29;20056;-64
2022/04/09 09:11:09;;;;;;;3.33;1.38;;;;;;;;;;4906396;29;20410;-63
2022/04/09 09:13:53;;;;;;;6.10;2.00;;;;;;;;;;4900953;29;20044;-64
2022/04/09 09:16:22;;;;;;;3.20;1.50;;;;;;;;;;4886514;29;20147;-63
2022/04/09 09:18:51;;;;;;;4.28;1.30;;;;;;;;;;4907117;29;20048;-63
2022/04/09 09:21:20;;;;;;;2.03;1.25;;;;;;;;;;4907090;29;20545;-64
2022/04/09 09:23:47;;;;;;;5.75;1.80;;;;;;;;;;4906560;29;20597;-64
2022/04/09 09:26:20;;;;;;;4.88;1.63;;;;;;;;;;4909082;29;20429;-64
2022/04/09 09:28:56;;;;;;;4.17;1.57;;;;;;;;;;4908358;29;20063;-65
2022/04/09 09:31:41;;;;;;;6.00;1.70;;;;;;;;;;4907919;29;20062;-63
2022/04/09 09:34:09;;;;;;;8.43;2.13;;;;;;;;;;4888948;29;20044;-64
2022/04/09 09:36:38;;;;;;;3.75;1.30;;;;;;;;;;4907045;29;20044;-65
2022/04/09 09:39:05;;;;;;;3.50;1.60;;;;;;;;;;4906293;29;20047;-64
2022/04/09 09:41:32;;;;;;;6.55;1.50;;;;;;;;;;4906876;29;20052;-64
2022/04/09 09:44:05;;;;;;;4.28;1.40;;;;;;;;;;4890369;29;20107;-66
2022/04/09 09:46:32;;;;;;;4.67;1.43;;;;;;;;;;4900603;29;20052;-61
2022/04/09 09:48:58;;;;;;;3.17;1.40;;;;;;;;;;4901010;29;20720;-64
2022/04/09 09:51:24;;;;;;;2.53;1.27;;;;;;;;;;4905672;29;20625;-72
2022/04/09 09:54:06;;;;;;;3.80;1.33;;;;;;;;;;4900335;29;20056;-63
2022/04/09 09:56:39;;;;;;;4.57;1.73;;;;;;;;;;4900126;29;20577;-64
2022/04/09 09:59:06;;;;;;;4.03;1.38;;;;;;;;;;4896777;29;20082;-63
2022/04/09 10:01:36;;;;;;;5.85;1.60;;;;;;;;;;4901875;29;20047;-63
2022/04/09 10:04:04;;;;;;;3.35;1.55;;;;;;;;;;4905854;29;20062;-61
2022/04/09 10:06:31;;;;;;;4.22;1.35;;;;;;;;;;4904919;29;20055;-62
2022/04/09 10:12:41;;;;;;;4.57;1.40;;;;;;;;;;4898507;29;20059;-66
2022/04/09 10:15:08;;;;;;;3.13;1.40;;;;;;;;;;4902245;29;20099;-65
2022/04/09 10:17:34;;;;;;;4.10;1.70;;;;;;;;;;4902440;29;20040;-65
2022/04/09 10:20:02;;;;;;;4.22;1.60;;;;;;;;;;4902230;29;20427;-64
2022/04/09 10:22:35;;;;;;;5.03;1.48;;;;;;;;;;4904493;29;20089;-66
2022/04/09 10:25:03;;;;;;;5.07;1.50;;;;;;;;;;4896876;29;20084;-66
2022/04/09 10:27:40;;;;;;;2.90;1.33;;;;;;;;;;4900014;29;20056;-62
2022/04/09 10:30:16;;;;;;;3.33;1.25;;;;;;;;;;4899280;29;20050;-63
2022/04/09 10:32:44;;;;;;;4.18;1.35;;;;;;;;;;4904690;29;20060;-64
2022/04/09 10:35:39;;;;;;;3.65;1.50;;;;;;;;;;4905761;29;20052;-65
2022/04/09 10:38:14;;;;;;;4.75;1.45;;;;;;;;;;4896951;29;20128;-65
2022/04/09 10:40:43;;;;;;;4.05;1.20;;;;;;;;;;4902010;29;21932;-64
2022/04/09 10:43:21;;;;;;;5.47;1.58;;;;;;;;;;4896536;29;20052;-65
2022/04/09 10:46:03;;;;;;;4.63;1.50;;;;;;;;;;4899838;29;20993;-66
2022/04/09 10:48:31;;;;;;;3.35;1.40;;;;;;;;;;4905092;29;20064;-63
2022/04/09 10:51:08;;;;;;;6.25;1.70;;;;;;;;;;4910200;29;20062;-68
2022/04/09 10:53:43;;;;;;;6.18;1.70;;;;;;;;;;4900797;29;20403;-66
2022/04/09 10:56:26;;;;;;;6.38;1.75;;;;;;;;;;4903866;29;20071;-65
2022/04/09 10:59:08;;;;;;;6.05;1.60;;;;;;;;;;4889235;29;20079;-66
2022/04/09 11:01:46;;;;;;;6.47;1.80;;;;;;;;;;4905309;29;20143;-65
2022/04/09 11:04:36;;;;;;;4.68;1.60;;;;;;;;;;4902464;29;20512;-64
2022/04/09 11:07:11;;;;;;;6.50;1.45;;;;;;;;;;4905401;29;20040;-65
2022/04/09 11:09:53;;;;;;;2.50;1.50;;;;;;;;;;4907154;29;20109;-66
2022/04/09 11:12:29;;;;;;;4.43;1.77;;;;;;;;;;4888154;29;20131;-64
2022/04/09 11:14:58;;;;;;;7.03;1.67;;;;;;;;;;4903148;29;20147;-66
2022/04/09 11:17:29;;;;;;;3.40;1.50;;;;;;;;;;4902937;29;20060;-65
2022/04/09 11:20:05;;;;;;;4.78;1.20;;;;;;;;;;4902007;29;20040;-67
2022/04/09 11:22:35;;;;;;;6.18;1.42;;;;;;;;;;4905844;29;20056;-65
2022/04/09 11:25:03;;;;;;;3.55;1.23;;;;;;;;;;4909131;29;20110;-66
2022/04/09 11:27:30;;;;;;;4.03;1.30;;;;;;;;;;4907348;29;20056;-65
2022/04/09 11:29:57;;;;;;;2.55;1.20;;;;;;;;;;4904226;29;20258;-65
2022/04/09 11:32:24;;;;;;;3.83;1.45;;;;;;;;;;4904017;29;20130;-65
2022/04/09 11:35:00;;;;;;;7.82;1.90;;;;;;;;;;4900354;29;20482;-67
2022/04/09 11:37:31;;;;;;;4.00;1.60;;;;;;;;;;4907611;29;20161;-70
2022/04/09 11:39:58;;;;;;;4.20;1.20;;;;;;;;;;4904788;29;20763;-65
2022/04/09 11:42:24;;;;;;;6.13;2.50;;;;;;;;;;4905242;29;20048;-68
2022/04/09 11:44:51;;;;;;;6.55;1.60;;;;;;;;;;4904950;29;20066;-69
2022/04/09 11:47:18;;;;;;;6.03;1.75;;;;;;;;;;4902996;29;20048;-69
2022/04/09 11:49:47;;;;;;;4.68;1.55;;;;;;;;;;4899958;29;20052;-66
2022/04/09 11:52:27;;;;;;;6.65;1.45;;;;;;;;;;4901349;29;20516;-65
2022/04/09 11:54:54;;;;;;;2.47;1.17;;;;;;;;;;4907382;29;20583;-67
2022/04/09 11:57:21;;;;;;;3.42;1.30;;;;;;;;;;4906894;29;20107;-64
2022/04/09 11:59:52;;;;;;;3.40;1.40;;;;;;;;;;4905846;29;20669;-66
2022/04/09 12:02:20;;;;;;;4.18;1.50;;;;;;;;;;4900682;29;20056;-66
2022/04/09 12:04:47;;;;;;;2.60;1.70;;;;;;;;;;4907245;29;20074;-67
2022/04/09 12:07:13;;;;;;;2.90;1.38;;;;;;;;;;4906364;29;20174;-65
2022/04/09 12:09:39;;;;;;;3.67;1.42;;;;;;;;;;4904339;29;20083;-67
2022/04/09 12:12:07;;;;;;;6.60;1.35;;;;;;;;;;4906182;29;20048;-66
2022/04/09 12:14:33;;;;;;;7.32;1.30;;;;;;;;;;4907088;29;20430;-66
2022/04/09 12:17:18;;;;;;;4.20;1.02;;;;;;;;;;4904909;29;20071;-65
2022/04/09 12:19:44;;;;;;;2.72;1.00;;;;;;;;;;4899716;29;20056;-64
2022/04/09 12:22:20;;;;;;;4.05;1.23;;;;;;;;;;4905243;29;20056;-68
2022/04/09 12:24:52;;;;;;;2.00;1.10;;;;;;;;;;4904194;29;20047;-66
2022/04/09 12:27:19;;;;;;;4.40;1.90;;;;;;;;;;4904795;29;20063;-66
2022/04/09 12:29:52;;;;;;;3.58;1.50;;;;;;;;;;4903376;29;20142;-66
2022/04/09 12:32:23;;;;;;;4.38;1.58;;;;;;;;;;4904594;29;20108;-66
2022/04/09 12:34:57;;;;;;;4.15;1.90;;;;;;;;;;4885106;29;20417;-65
2022/04/09 12:37:24;;;;;;;3.38;1.48;;;;;;;;;;4906052;29;20056;-66
2022/04/09 12:39:52;;;;;;;3.25;1.67;;;;;;;;;;4905142;29;20068;-67
2022/04/09 12:42:30;;;;;;;7.22;2.40;;;;;;;;;;4900372;29;20091;-66
2022/04/09 12:45:16;;;;;;;6.57;1.92;;;;;;;;;;4905340;29;20066;-62
2022/04/09 12:47:52;;;;;;;2.97;1.60;;;;;;;;;;4903776;29;20052;-64
2022/04/09 12:50:22;;;;;;;5.15;2.05;;;;;;;;;;4905919;29;20088;-68
2022/04/09 12:52:48;;;;;;;3.90;1.42;;;;;;;;;;4910655;29;20052;-66
2022/04/09 12:55:16;;;;;;;2.38;1.50;;;;;;;;;;4892913;29;20529;-67
2022/04/09 12:57:42;;;;;;;5.45;1.63;;;;;;;;;;4905382;29;20134;-69
2022/04/09 13:00:09;;;;;;;4.97;1.60;;;;;;;;;;4903107;29;20129;-67
2022/04/09 13:02:36;;;;;;;7.68;1.42;;;;;;;;;;4908213;29;20063;-71
2022/04/09 13:05:05;;;;;;;3.72;1.45;;;;;;;;;;4910666;29;20056;-70
2022/04/09 13:07:31;;;;;;;4.50;1.25;;;;;;;;;;4911855;29;20064;-71
2022/04/09 13:09:57;;;;;;;3.80;1.85;;;;;;;;;;4913803;29;20088;-69
2022/04/09 13:12:23;;;;;;;3.00;1.30;;;;;;;;;;4911789;29;20438;-68
2022/04/09 13:14:49;;;;;;;6.03;1.60;;;;;;;;;;4880358;29;20431;-71
2022/04/09 13:17:14;;;;;;;2.55;1.20;;;;;;;;;;4911639;29;20048;-70
2022/04/09 13:19:40;;;;;;;1.92;1.10;;;;;;;;;;4891263;29;20071;-70
2022/04/09 13:22:06;;;;;;;2.47;1.10;;;;;;;;;;4911471;29;20044;-70
2022/04/09 13:24:32;;;;;;;3.47;1.40;;;;;;;;;;4909296;29;20050;-67
2022/04/09 13:26:58;;;;;;;4.65;1.48;;;;;;;;;;4909298;29;20111;-69
2022/04/09 13:29:24;;;;;;;3.45;1.27;;;;;;;;;;4909085;29;20051;-68
2022/04/09 13:31:50;;;;;;;1.92;1.10;;;;;;;;;;4912879;29;20063;-68
2022/04/09 13:34:17;;;;;;;3.67;1.20;;;;;;;;;;4903143;29;20060;-70
2022/04/09 13:36:44;;;;;;;3.03;1.13;;;;;;;;;;4906348;29;20096;-68
2022/04/09 13:39:11;;;;;;;3.00;1.20;;;;;;;;;;4906691;29;20047;-70
2022/04/09 13:41:38;;;;;;;3.65;1.10;;;;;;;;;;4908260;29;20078;-69
2022/04/09 13:44:04;;;;;;;2.38;1.00;;;;;;;;;;4905538;29;20044;-69
2022/04/09 13:46:30;;;;;;;6.13;1.30;;;;;;;;;;4909074;29;20052;-70
2022/04/09 13:48:56;;;;;;;1.83;1.15;;;;;;;;;;4908848;29;20056;-68
2022/04/09 13:51:22;;;;;;;2.50;1.20;;;;;;;;;;4909356;29;20135;-68
2022/04/09 13:53:49;;;;;;;3.38;1.52;;;;;;;;;;4906896;29;20116;-69
2022/04/09 13:56:15;;;;;;;3.10;1.15;;;;;;;;;;4907373;29;20048;-69
2022/04/09 13:58:41;;;;;;;2.42;1.10;;;;;;;;;;4905152;29;20434;-69
2022/04/09 14:01:08;;;;;;;4.88;1.38;;;;;;;;;;4907053;29;20064;-70
2022/04/09 14:03:34;;;;;;;2.25;1.13;;;;;;;;;;4902943;29;20550;-67
2022/04/09 14:06:00;;;;;;;2.25;0.80;;;;;;;;;;4907401;29;20083;-69
2022/04/09 14:08:27;;;;;;;4.70;1.00;;;;;;;;;;4907032;29;20056;-69
2022/04/09 14:10:53;;;;;;;1.83;1.00;;;;;;;;;;4907866;29;20066;-70
2022/04/09 14:13:20;;;;;;;1.85;0.90;;;;;;;;;;4903039;29;20407;-73
2022/04/09 14:15:46;;;;;;;2.15;1.10;;;;;;;;;;4905891;29;20397;-68
2022/04/09 14:18:12;;;;;;;3.53;1.00;;;;;;;;;;4905137;29;20063;-68
2022/04/09 14:20:38;;;;;;;3.60;0.82;;;;;;;;;;4906215;29;20044;-70
2022/04/09 14:23:04;;;;;;;4.07;0.95;;;;;;;;;;4906296;29;20636;-69
2022/04/09 14:25:31;;;;;;;1.92;0.90;;;;;;;;;;4907379;29;20506;-68
2022/04/09 14:27:57;;;;;;;2.05;1.00;;;;;;;;;;4905180;29;20068;-71
2022/04/09 14:30:27;;;;;;;3.25;1.10;;;;;;;;;;4905319;29;20056;-70
2022/04/09 14:32:54;;;;;;;9.38;2.20;;;;;;;;;;4904526;29;20060;-69
2022/04/09 14:35:20;;;;;;;9.45;3.72;;;;;;;;;;4904874;29;20115;-70
2022/04/09 14:37:47;;;;;;;14.07;4.70;;;;;;;;;;4907273;29;20043;-69
2022/04/09 14:40:14;;;;;;;12.65;2.92;;;;;;;;;;4907433;29;20052;-70
2022/04/09 14:42:40;;;;;;;11.85;2.00;;;;;;;;;;4905569;29;20107;-71
2022/04/09 14:45:10;;;;;;;17.90;2.25;;;;;;;;;;4883728;29;20079;-69
2022/04/09 14:47:36;;;;;;;18.05;2.33;;;;;;;;;;4901579;29;20135;-70
2022/04/09 14:50:02;;;;;;;9.18;1.77;;;;;;;;;;4889113;29;20062;-69